Time;durP1;ratioP1;P1;durP2;ratioP2;P2;SDS_P1;SDS_P2;PMS_P1;PMS_P2;Temp;Humidity;BMP_temperature;BMP_pressure;BME280_temperature;BME280_humidity;BME280_pressure;Samples;Min_cycle;Max_cycle;Signal;HPM_P1;HPM_P2
2021/07/08 00:01:51;;;;;;;;;9.50;8.25;;;;;;;;5004985;28;45559;-80
2021/07/08 00:04:16;;;;;;;;;9.75;9.00;;;;;;;;5018186;28;45359;-80
2021/07/08 00:06:41;;;;;;;;;12.00;10.00;;;;;;;;5033196;28;45753;-80
2021/07/08 00:09:07;;;;;;;;;10.00;8.33;;;;;;;;5014818;28;46846;-80
2021/07/08 00:11:33;;;;;;;;;9.00;9.00;;;;;;;;5008647;28;47416;-80
2021/07/08 00:13:58;;;;;;;;;11.75;8.50;;;;;;;;5029030;28;45522;-80
2021/07/08 00:16:24;;;;;;;;;9.00;7.00;;;;;;;;5024466;28;45593;-80
2021/07/08 00:18:52;;;;;;;;;6.00;6.00;;;;;;;;5030743;28;45613;-80
2021/07/08 00:21:17;;;;;;;;;4.25;3.00;;;;;;;;5022401;28;45460;-80
2021/07/08 00:23:42;;;;;;;;;9.25;7.50;;;;;;;;5015749;28;47179;-81
2021/07/08 00:26:08;;;;;;;;;7.50;6.25;;;;;;;;5018659;28;45467;-80
2021/07/08 00:28:33;;;;;;;;;6.75;6.25;;;;;;;;5017277;28;45507;-79
2021/07/08 00:30:58;;;;;;;;;6.50;6.50;;;;;;;;5011253;28;45382;-80
2021/07/08 00:33:23;;;;;;;;;6.00;6.00;;;;;;;;5025161;28;47209;-79
2021/07/08 00:35:49;;;;;;;;;6.50;6.00;;;;;;;;5009055;28;45415;-81
2021/07/08 00:38:14;;;;;;;;;8.00;6.00;;;;;;;;5016552;28;45565;-80
2021/07/08 00:40:40;;;;;;;;;5.00;5.00;;;;;;;;5012200;28;45419;-81
2021/07/08 00:43:05;;;;;;;;;5.50;5.25;;;;;;;;5011020;28;45997;-81
2021/07/08 00:45:30;;;;;;;;;6.50;4.00;;;;;;;;4988081;28;46320;-84
2021/07/08 00:47:56;;;;;;;;;6.00;6.00;;;;;;;;5009744;28;45593;-81
2021/07/08 00:50:29;;;;;;;;;5.00;4.75;;;;;;;;5010664;28;45512;-81
2021/07/08 00:52:55;;;;;;;;;4.25;4.00;;;;;;;;5009924;28;46513;-80
2021/07/08 00:55:20;;;;;;;;;5.00;4.50;;;;;;;;5006107;28;45967;-81
2021/07/08 00:57:55;;;;;;;;;5.00;4.25;;;;;;;;4992570;28;45535;-81
2021/07/08 01:00:28;;;;;;;;;5.00;5.00;;;;;;;;5015408;28;45649;-81
2021/07/08 01:02:54;;;;;;;;;5.00;3.50;;;;;;;;5016615;28;45576;-81
2021/07/08 01:05:21;;;;;;;;;4.00;4.00;;;;;;;;5011865;28;46647;-81
2021/07/08 01:07:47;;;;;;;;;6.00;6.00;;;;;;;;4988439;28;45732;-82
2021/07/08 01:10:13;;;;;;;;;6.25;4.00;;;;;;;;4991555;28;45859;-81
2021/07/08 01:12:38;;;;;;;;;4.50;4.00;;;;;;;;5012466;28;46693;-81
2021/07/08 01:15:04;;;;;;;;;7.75;4.25;;;;;;;;5007980;28;45846;-81
2021/07/08 01:17:30;;;;;;;;;6.75;5.75;;;;;;;;5016030;28;45651;-80
2021/07/08 01:19:55;;;;;;;;;6.00;5.00;;;;;;;;5010298;28;60910;-81
2021/07/08 01:22:20;;;;;;;;;5.00;5.00;;;;;;;;5016758;28;46083;-81
2021/07/08 01:24:45;;;;;;;;;6.75;6.25;;;;;;;;4987606;28;46989;-81
2021/07/08 01:27:12;;;;;;;;;5.00;5.00;;;;;;;;4982874;28;46458;-81
2021/07/08 01:29:37;;;;;;;;;6.00;6.00;;;;;;;;4995703;28;45640;-80
2021/07/08 01:32:03;;;;;;;;;7.00;6.00;;;;;;;;5003195;28;45945;-81
2021/07/08 01:34:28;;;;;;;;;5.75;4.00;;;;;;;;5010656;28;46804;-80
2021/07/08 01:36:53;;;;;;;;;5.33;5.33;;;;;;;;5023463;28;45886;-79
2021/07/08 01:39:19;;;;;;;;;4.67;4.33;;;;;;;;5019081;28;46160;-79
2021/07/08 01:41:45;;;;;;;;;5.75;5.25;;;;;;;;5008240;28;47189;-80
2021/07/08 01:44:11;;;;;;;;;6.00;5.00;;;;;;;;5012632;28;46844;-80
2021/07/08 01:46:38;;;;;;;;;6.75;5.00;;;;;;;;5018602;28;46907;-79
2021/07/08 01:49:03;;;;;;;;;5.25;4.50;;;;;;;;5025016;28;45948;-80
2021/07/08 01:51:30;;;;;;;;;7.25;6.00;;;;;;;;5028968;28;46184;-80
2021/07/08 01:53:57;;;;;;;;;8.00;5.50;;;;;;;;5026737;28;45857;-79
2021/07/08 01:56:22;;;;;;;;;7.75;6.00;;;;;;;;5019855;28;46976;-80
2021/07/08 01:58:48;;;;;;;;;4.00;4.00;;;;;;;;5003810;28;44900;-81
2021/07/08 02:01:13;;;;;;;;;6.25;6.25;;;;;;;;5014589;28;45605;-80
2021/07/08 02:03:39;;;;;;;;;9.00;6.00;;;;;;;;5017463;28;45577;-80
2021/07/08 02:06:04;;;;;;;;;5.75;5.00;;;;;;;;5010033;28;45795;-80
2021/07/08 02:08:30;;;;;;;;;5.75;5.00;;;;;;;;5011853;28;44962;-81
2021/07/08 02:10:55;;;;;;;;;6.00;5.75;;;;;;;;5025438;28;45541;-80
2021/07/08 02:13:20;;;;;;;;;6.00;5.25;;;;;;;;5030301;28;45842;-80
2021/07/08 02:15:46;;;;;;;;;7.25;7.25;;;;;;;;5027109;28;45562;-80
2021/07/08 02:18:11;;;;;;;;;6.75;6.00;;;;;;;;5025679;28;45655;-80
2021/07/08 02:20:37;;;;;;;;;9.00;9.00;;;;;;;;5025937;28;46013;-78
2021/07/08 02:23:02;;;;;;;;;8.50;8.00;;;;;;;;5021812;28;45088;-80
2021/07/08 02:25:28;;;;;;;;;8.00;8.00;;;;;;;;5016009;28;46257;-79
2021/07/08 02:27:54;;;;;;;;;7.00;6.25;;;;;;;;5018880;28;55447;-80
2021/07/08 02:30:24;;;;;;;;;5.75;3.00;;;;;;;;5019277;28;45657;-80
2021/07/08 02:32:52;;;;;;;;;8.00;8.00;;;;;;;;5021563;28;46091;-80
2021/07/08 02:35:17;;;;;;;;;6.00;6.00;;;;;;;;5023744;28;45763;-79
2021/07/08 02:37:43;;;;;;;;;8.25;7.00;;;;;;;;5020473;28;46283;-80
2021/07/08 02:40:13;;;;;;;;;6.50;6.50;;;;;;;;5022800;28;45632;-80
2021/07/08 02:42:39;;;;;;;;;5.50;5.50;;;;;;;;4995959;28;45814;-79
2021/07/08 02:45:05;;;;;;;;;7.25;6.75;;;;;;;;5014530;28;45506;-79
2021/07/08 02:47:30;;;;;;;;;6.00;6.00;;;;;;;;5001993;28;45523;-79
2021/07/08 02:49:55;;;;;;;;;7.00;6.00;;;;;;;;4998104;28;48081;-79
2021/07/08 02:52:21;;;;;;;;;12.33;6.00;;;;;;;;5020724;28;45822;-80
2021/07/08 02:54:46;;;;;;;;;7.33;7.00;;;;;;;;5032878;28;45617;-78
2021/07/08 02:57:11;;;;;;;;;7.00;7.00;;;;;;;;5028319;28;44906;-80
2021/07/08 02:59:36;;;;;;;;;7.75;7.00;;;;;;;;5028464;28;47099;-79
2021/07/08 03:02:02;;;;;;;;;8.67;7.33;;;;;;;;5025317;28;45569;-79
2021/07/08 03:04:27;;;;;;;;;7.25;6.75;;;;;;;;5029938;28;44958;-79
2021/07/08 03:06:52;;;;;;;;;7.00;7.00;;;;;;;;5020080;28;45930;-78
2021/07/08 03:09:17;;;;;;;;;8.33;8.00;;;;;;;;5016174;28;46888;-79
2021/07/08 03:11:43;;;;;;;;;7.25;7.25;;;;;;;;5021375;28;45580;-79
2021/07/08 03:14:08;;;;;;;;;5.25;5.25;;;;;;;;5021375;28;45465;-78
2021/07/08 03:16:33;;;;;;;;;7.33;7.33;;;;;;;;5002432;28;45762;-79
2021/07/08 03:18:58;;;;;;;;;8.75;7.50;;;;;;;;5004942;28;60685;-79
2021/07/08 03:21:24;;;;;;;;;10.50;8.00;;;;;;;;5005236;28;45851;-79
2021/07/08 03:23:49;;;;;;;;;8.67;8.00;;;;;;;;5011943;28;45447;-79
2021/07/08 03:26:14;;;;;;;;;7.00;7.00;;;;;;;;4986144;28;45914;-78
2021/07/08 03:28:39;;;;;;;;;6.67;6.67;;;;;;;;5004914;28;45610;-78
2021/07/08 03:31:05;;;;;;;;;7.75;7.25;;;;;;;;4991931;28;45474;-78
2021/07/08 03:33:30;;;;;;;;;7.00;7.00;;;;;;;;5005662;28;47025;-79
2021/07/08 03:35:55;;;;;;;;;6.00;6.00;;;;;;;;5000208;28;45537;-80
2021/07/08 03:38:20;;;;;;;;;8.00;7.00;;;;;;;;4998254;28;48414;-80
2021/07/08 03:40:46;;;;;;;;;9.00;7.00;;;;;;;;4974145;28;46309;-80
2021/07/08 03:43:11;;;;;;;;;9.00;8.00;;;;;;;;4988462;28;47251;-80
2021/07/08 03:45:36;;;;;;;;;7.00;7.00;;;;;;;;4987751;28;45474;-80
2021/07/08 03:48:02;;;;;;;;;8.00;6.00;;;;;;;;4974991;28;47136;-80
2021/07/08 03:50:27;;;;;;;;;6.75;6.75;;;;;;;;4997169;28;45760;-80
2021/07/08 03:52:52;;;;;;;;;8.00;6.00;;;;;;;;4994227;28;45601;-80
2021/07/08 03:55:20;;;;;;;;;6.00;6.00;;;;;;;;5001959;28;45941;-80
2021/07/08 03:57:55;;;;;;;;;7.25;7.00;;;;;;;;4981971;28;47378;-80
2021/07/08 04:00:28;;;;;;;;;5.50;5.50;;;;;;;;4990570;28;48357;-80
2021/07/08 04:02:54;;;;;;;;;7.50;6.50;;;;;;;;4990850;28;46934;-80
2021/07/08 04:05:19;;;;;;;;;7.00;7.00;;;;;;;;4976288;28;47239;-79
2021/07/08 04:07:45;;;;;;;;;6.50;6.50;;;;;;;;4986060;28;49137;-80
2021/07/08 04:10:10;;;;;;;;;6.75;6.75;;;;;;;;4975093;28;46191;-81
2021/07/08 04:12:36;;;;;;;;;9.50;8.00;;;;;;;;4994798;28;46210;-80
2021/07/08 04:15:01;;;;;;;;;7.25;6.50;;;;;;;;4998049;28;52455;-81
2021/07/08 04:17:27;;;;;;;;;6.50;6.25;;;;;;;;5009285;28;50154;-80
2021/07/08 04:19:52;;;;;;;;;6.25;6.25;;;;;;;;5011555;28;52209;-80
2021/07/08 04:22:17;;;;;;;;;10.00;7.67;;;;;;;;5011543;28;45726;-80
2021/07/08 04:24:42;;;;;;;;;7.00;6.00;;;;;;;;5012131;28;45574;-80
2021/07/08 04:27:07;;;;;;;;;8.00;6.67;;;;;;;;5013667;28;46054;-79
2021/07/08 04:29:33;;;;;;;;;6.00;6.00;;;;;;;;5002998;28;45474;-80
2021/07/08 04:31:58;;;;;;;;;9.50;7.75;;;;;;;;5014018;28;45705;-80
2021/07/08 04:34:23;;;;;;;;;9.00;7.50;;;;;;;;5012796;28;45564;-78
2021/07/08 04:36:49;;;;;;;;;8.00;8.00;;;;;;;;5019314;28;47574;-79
2021/07/08 04:39:14;;;;;;;;;12.00;9.50;;;;;;;;5030461;28;45434;-79
2021/07/08 04:41:39;;;;;;;;;16.25;12.50;;;;;;;;5014344;28;45478;-79
2021/07/08 04:44:05;;;;;;;;;14.25;10.25;;;;;;;;5003528;28;45799;-79
2021/07/08 04:46:30;;;;;;;;;16.00;13.00;;;;;;;;5018321;28;46411;-79
2021/07/08 04:48:56;;;;;;;;;17.50;12.25;;;;;;;;5020515;28;46147;-79
2021/07/08 04:51:21;;;;;;;;;14.00;13.75;;;;;;;;5021695;28;45608;-79
2021/07/08 04:53:47;;;;;;;;;13.75;13.75;;;;;;;;5012552;28;44948;-79
2021/07/08 04:56:12;;;;;;;;;13.00;11.00;;;;;;;;5025588;28;45724;-79
2021/07/08 04:58:37;;;;;;;;;15.50;14.00;;;;;;;;5007644;28;45702;-79
2021/07/08 05:01:02;;;;;;;;;13.33;13.33;;;;;;;;5028388;28;45571;-79
2021/07/08 05:03:28;;;;;;;;;15.25;13.75;;;;;;;;5022164;28;45797;-79
2021/07/08 05:05:53;;;;;;;;;12.75;11.25;;;;;;;;5029132;28;46065;-78
2021/07/08 05:08:18;;;;;;;;;14.33;13.00;;;;;;;;5014518;28;45627;-78
2021/07/08 05:10:44;;;;;;;;;13.25;10.75;;;;;;;;5018663;28;45631;-79
2021/07/08 05:13:09;;;;;;;;;13.50;11.50;;;;;;;;5026357;28;45530;-79
2021/07/08 05:15:36;;;;;;;;;13.75;10.75;;;;;;;;5022401;28;45807;-79
2021/07/08 05:18:01;;;;;;;;;12.25;10.00;;;;;;;;5004280;28;45543;-79
2021/07/08 05:20:27;;;;;;;;;16.25;10.00;;;;;;;;5009218;28;45494;-80
2021/07/08 05:22:59;;;;;;;;;11.25;11.00;;;;;;;;5005544;28;45659;-79
2021/07/08 05:25:25;;;;;;;;;12.75;10.00;;;;;;;;5009556;28;45486;-79
2021/07/08 05:27:50;;;;;;;;;12.00;9.50;;;;;;;;5001168;28;45555;-78
2021/07/08 05:30:16;;;;;;;;;9.25;7.75;;;;;;;;5000097;28;46503;-79
2021/07/08 05:32:42;;;;;;;;;10.75;7.00;;;;;;;;5009243;28;45527;-78
2021/07/08 05:35:07;;;;;;;;;8.25;7.00;;;;;;;;4981906;28;45545;-78
2021/07/08 05:37:33;;;;;;;;;7.50;7.00;;;;;;;;4986337;28;45218;-80
2021/07/08 05:39:58;;;;;;;;;8.75;6.50;;;;;;;;4996745;28;44896;-78
2021/07/08 05:42:23;;;;;;;;;8.00;7.00;;;;;;;;4993783;28;44974;-80
2021/07/08 05:44:49;;;;;;;;;12.25;7.00;;;;;;;;4989472;28;46077;-78
2021/07/08 05:47:15;;;;;;;;;6.67;6.67;;;;;;;;5005556;28;46088;-79
2021/07/08 05:49:41;;;;;;;;;10.00;7.00;;;;;;;;5002652;28;45608;-78
2021/07/08 05:52:06;;;;;;;;;12.25;7.00;;;;;;;;5002343;28;45330;-80
2021/07/08 05:54:31;;;;;;;;;7.25;6.25;;;;;;;;4985405;28;46596;-78
2021/07/08 05:56:57;;;;;;;;;7.25;7.00;;;;;;;;4979701;28;45762;-81
2021/07/08 05:59:24;;;;;;;;;10.00;7.00;;;;;;;;4987165;28;45958;-80
2021/07/08 06:01:50;;;;;;;;;11.75;9.25;;;;;;;;4990870;28;46775;-80
2021/07/08 06:04:15;;;;;;;;;8.50;7.00;;;;;;;;5004382;28;47297;-81
2021/07/08 06:06:40;;;;;;;;;9.50;7.75;;;;;;;;4996885;28;45572;-82
2021/07/08 06:09:06;;;;;;;;;10.25;8.50;;;;;;;;5002077;28;46045;-82
2021/07/08 06:11:31;;;;;;;;;7.00;7.00;;;;;;;;4976974;28;54091;-82
2021/07/08 06:13:57;;;;;;;;;10.00;6.50;;;;;;;;4994138;28;45786;-83
2021/07/08 06:16:22;;;;;;;;;9.33;7.67;;;;;;;;5019312;28;46268;-83
2021/07/08 06:18:47;;;;;;;;;9.25;8.75;;;;;;;;5024288;28;45465;-82
2021/07/08 06:21:14;;;;;;;;;8.50;7.00;;;;;;;;5033679;28;45871;-82
2021/07/08 06:23:40;;;;;;;;;9.00;5.75;;;;;;;;5025613;28;46250;-83
2021/07/08 06:26:05;;;;;;;;;9.50;7.00;;;;;;;;5017661;28;45787;-83
2021/07/08 06:28:30;;;;;;;;;5.00;5.00;;;;;;;;5021010;28;45422;-83
2021/07/08 06:30:56;;;;;;;;;7.00;6.00;;;;;;;;5020351;28;55643;-83
2021/07/08 06:33:21;;;;;;;;;5.75;4.00;;;;;;;;5028745;28;45579;-82
2021/07/08 06:35:48;;;;;;;;;7.50;7.25;;;;;;;;5019785;28;45502;-84
2021/07/08 06:38:13;;;;;;;;;5.00;4.75;;;;;;;;5015864;28;45632;-84
2021/07/08 06:40:38;;;;;;;;;6.00;6.00;;;;;;;;5029207;28;45609;-85
2021/07/08 06:43:04;;;;;;;;;5.00;4.00;;;;;;;;5008207;28;48181;-89
2021/07/08 06:45:30;;;;;;;;;4.67;3.00;;;;;;;;5022150;28;45809;-84
2021/07/08 06:48:02;;;;;;;;;4.00;4.00;;;;;;;;5014847;28;45458;-83
2021/07/08 06:50:28;;;;;;;;;5.00;4.00;;;;;;;;5009749;28;45572;-84
2021/07/08 06:52:53;;;;;;;;;4.75;4.75;;;;;;;;5017248;28;47208;-83
2021/07/08 06:55:18;;;;;;;;;7.00;5.00;;;;;;;;5022720;28;45222;-84
2021/07/08 06:57:53;;;;;;;;;6.75;5.00;;;;;;;;5001090;28;45407;-84
2021/07/08 07:00:28;;;;;;;;;4.00;4.00;;;;;;;;5027059;28;45645;-84
2021/07/08 07:02:55;;;;;;;;;6.00;6.00;;;;;;;;5002408;28;48753;-85
2021/07/08 07:05:21;;;;;;;;;4.00;4.00;;;;;;;;5018418;28;45696;-84
2021/07/08 07:07:47;;;;;;;;;6.25;5.00;;;;;;;;5025133;28;45887;-84
2021/07/08 07:10:12;;;;;;;;;5.00;3.00;;;;;;;;5003737;28;45724;-83
2021/07/08 07:12:41;;;;;;;;;3.00;3.00;;;;;;;;5015888;28;46049;-84
2021/07/08 07:15:07;;;;;;;;;4.75;4.50;;;;;;;;5022151;28;45531;-83
2021/07/08 07:17:33;;;;;;;;;6.50;5.25;;;;;;;;5018067;28;45582;-84
2021/07/08 07:19:58;;;;;;;;;5.50;4.00;;;;;;;;5027810;28;45608;-84
2021/07/08 07:22:24;;;;;;;;;4.75;4.00;;;;;;;;5018331;28;46552;-82
2021/07/08 07:24:51;;;;;;;;;4.25;3.25;;;;;;;;5002280;28;45557;-85
2021/07/08 07:27:16;;;;;;;;;3.75;2.00;;;;;;;;5002321;28;45581;-83
2021/07/08 07:29:42;;;;;;;;;3.75;3.50;;;;;;;;5020592;28;45715;-83
2021/07/08 07:32:08;;;;;;;;;4.00;3.25;;;;;;;;5016949;28;55892;-83
2021/07/08 07:34:33;;;;;;;;;3.00;3.00;;;;;;;;5021192;28;45801;-83
2021/07/08 07:36:58;;;;;;;;;4.00;4.00;;;;;;;;5016881;28;45565;-85
2021/07/08 07:39:23;;;;;;;;;5.50;3.25;;;;;;;;5016895;28;46599;-85
2021/07/08 07:41:49;;;;;;;;;5.00;4.25;;;;;;;;5017451;28;46423;-84
2021/07/08 07:44:14;;;;;;;;;4.50;4.50;;;;;;;;5016331;28;45654;-84
2021/07/08 07:46:39;;;;;;;;;5.50;3.50;;;;;;;;5029384;28;45533;-83
2021/07/08 07:49:07;;;;;;;;;3.50;3.25;;;;;;;;5008000;28;45577;-84
2021/07/08 07:51:32;;;;;;;;;6.25;5.00;;;;;;;;5015782;28;46950;-84
2021/07/08 07:53:58;;;;;;;;;4.25;3.75;;;;;;;;5014889;28;45701;-83
2021/07/08 07:56:24;;;;;;;;;4.25;4.00;;;;;;;;5015231;28;45425;-84
2021/07/08 07:58:49;;;;;;;;;7.00;5.00;;;;;;;;5018735;28;45701;-84
2021/07/08 08:01:14;;;;;;;;;5.00;3.75;;;;;;;;5020691;28;46559;-84
2021/07/08 08:03:40;;;;;;;;;5.25;4.50;;;;;;;;5021433;28;53242;-84
2021/07/08 08:08:49;;;;;;;;;3.00;3.00;;;;;;;;5013224;28;46175;-84
2021/07/08 08:11:15;;;;;;;;;3.33;3.33;;;;;;;;5012394;28;51022;-84
2021/07/08 08:13:40;;;;;;;;;3.75;3.75;;;;;;;;5017446;28;45566;-84
2021/07/08 08:16:07;;;;;;;;;5.25;4.75;;;;;;;;5016304;28;45535;-84
2021/07/08 08:18:33;;;;;;;;;4.50;4.00;;;;;;;;5009620;28;45810;-84
2021/07/08 08:20:58;;;;;;;;;4.50;3.50;;;;;;;;5020889;28;45644;-83
2021/07/08 08:23:24;;;;;;;;;3.50;3.50;;;;;;;;4983026;28;45473;-83
2021/07/08 08:25:49;;;;;;;;;5.00;3.00;;;;;;;;5020677;28;45601;-83
2021/07/08 08:28:14;;;;;;;;;4.75;4.00;;;;;;;;5003236;28;45513;-83
2021/07/08 08:30:40;;;;;;;;;3.75;2.75;;;;;;;;4996270;28;47936;-84
2021/07/08 08:33:05;;;;;;;;;5.75;4.00;;;;;;;;5019449;28;45383;-83
2021/07/08 08:35:30;;;;;;;;;4.50;4.50;;;;;;;;5015982;28;45610;-83
2021/07/08 08:37:56;;;;;;;;;5.75;5.00;;;;;;;;5002162;28;45789;-86
2021/07/08 08:40:22;;;;;;;;;3.25;3.25;;;;;;;;5016969;28;47332;-85
2021/07/08 08:42:48;;;;;;;;;2.75;2.75;;;;;;;;5014983;28;45901;-83
2021/07/08 08:45:20;;;;;;;;;2.75;2.75;;;;;;;;5015820;28;45495;-84
2021/07/08 08:48:11;;;;;;;;;4.75;3.00;;;;;;;;5018257;28;45451;-86
2021/07/08 08:50:38;;;;;;;;;5.00;2.50;;;;;;;;5015626;28;46495;-85
2021/07/08 08:53:04;;;;;;;;;4.00;4.00;;;;;;;;5013320;28;45620;-85
2021/07/08 08:55:29;;;;;;;;;2.50;2.00;;;;;;;;5014107;28;45518;-84
2021/07/08 08:57:55;;;;;;;;;6.50;4.00;;;;;;;;5007201;28;45546;-84
2021/07/08 09:00:23;;;;;;;;;3.50;3.00;;;;;;;;5016923;28;46128;-84
2021/07/08 09:02:56;;;;;;;;;3.25;3.00;;;;;;;;5015781;28;46470;-85
2021/07/08 09:05:22;;;;;;;;;5.00;2.25;;;;;;;;5022802;28;45566;-85
2021/07/08 09:07:47;;;;;;;;;4.00;3.00;;;;;;;;5006966;28;45664;-84
2021/07/08 09:10:12;;;;;;;;;3.00;2.75;;;;;;;;5006347;28;46452;-83
2021/07/08 09:12:38;;;;;;;;;6.25;4.00;;;;;;;;5019526;28;51071;-83
2021/07/08 09:15:19;;;;;;;;;4.75;3.25;;;;;;;;5015503;28;46967;-83
2021/07/08 09:17:45;;;;;;;;;3.00;3.00;;;;;;;;5007888;28;45839;-83
2021/07/08 09:20:14;;;;;;;;;3.00;3.00;;;;;;;;5003783;28;47953;-84
2021/07/08 09:22:40;;;;;;;;;3.75;3.00;;;;;;;;5020873;28;46030;-84
2021/07/08 09:25:21;;;;;;;;;4.25;4.25;;;;;;;;5010024;28;46028;-83
2021/07/08 09:27:51;;;;;;;;;2.75;2.75;;;;;;;;5020643;28;45660;-83
2021/07/08 09:30:23;;;;;;;;;6.50;3.25;;;;;;;;5022730;28;47120;-82
2021/07/08 09:32:48;;;;;;;;;4.50;4.00;;;;;;;;5010581;28;46632;-83
2021/07/08 09:35:14;;;;;;;;;2.75;2.75;;;;;;;;5022833;28;46933;-82
2021/07/08 09:37:41;;;;;;;;;4.75;3.00;;;;;;;;5018704;28;45637;-82
2021/07/08 09:40:08;;;;;;;;;4.00;3.75;;;;;;;;5015512;28;45561;-83
2021/07/08 09:42:36;;;;;;;;;3.00;3.00;;;;;;;;5006100;28;45793;-83
2021/07/08 09:45:03;;;;;;;;;5.00;4.00;;;;;;;;5018884;28;45550;-82
2021/07/08 09:47:30;;;;;;;;;3.75;3.00;;;;;;;;4996089;28;45461;-83
2021/07/08 09:49:55;;;;;;;;;3.00;3.00;;;;;;;;5017834;28;45599;-83
2021/07/08 09:52:21;;;;;;;;;3.00;2.00;;;;;;;;5003208;28;45491;-84
2021/07/08 09:54:50;;;;;;;;;3.00;3.00;;;;;;;;4998525;28;45645;-84
2021/07/08 09:57:35;;;;;;;;;3.50;3.50;;;;;;;;5007649;28;47105;-84
2021/07/08 10:00:01;;;;;;;;;6.00;3.75;;;;;;;;5020750;28;46216;-83
2021/07/08 10:02:31;;;;;;;;;3.25;3.00;;;;;;;;5011736;28;45835;-83
2021/07/08 10:04:57;;;;;;;;;4.00;4.00;;;;;;;;5013288;28;45402;-83
2021/07/08 10:07:24;;;;;;;;;5.00;3.00;;;;;;;;5013841;28;45460;-84
2021/07/08 10:09:49;;;;;;;;;4.00;4.00;;;;;;;;5013289;28;46471;-84
2021/07/08 10:12:14;;;;;;;;;3.00;3.00;;;;;;;;4998896;28;45959;-83
2021/07/08 10:14:42;;;;;;;;;2.50;2.50;;;;;;;;5014070;28;45587;-84
2021/07/08 10:17:08;;;;;;;;;4.75;3.00;;;;;;;;5004884;28;45502;-82
2021/07/08 10:19:35;;;;;;;;;3.00;3.00;;;;;;;;5001780;28;47142;-83
2021/07/08 10:22:01;;;;;;;;;5.00;4.00;;;;;;;;5017003;28;45783;-79
2021/07/08 10:24:27;;;;;;;;;3.00;3.00;;;;;;;;5018786;28;45596;-84
2021/07/08 10:26:52;;;;;;;;;3.25;2.00;;;;;;;;5015285;28;45408;-83
2021/07/08 10:29:18;;;;;;;;;3.75;3.75;;;;;;;;5016654;28;45976;-84
2021/07/08 10:31:47;;;;;;;;;3.00;3.00;;;;;;;;5029339;28;48498;-84
2021/07/08 10:34:21;;;;;;;;;4.00;4.00;;;;;;;;5019653;28;45741;-84
2021/07/08 10:36:47;;;;;;;;;3.00;3.00;;;;;;;;5012649;28;45439;-83
2021/07/08 10:39:19;;;;;;;;;5.00;4.00;;;;;;;;5010669;28;45826;-85
2021/07/08 10:41:46;;;;;;;;;4.75;3.00;;;;;;;;5018004;28;45587;-84
2021/07/08 10:44:30;;;;;;;;;2.50;2.50;;;;;;;;5011416;28;46151;-84
2021/07/08 10:46:55;;;;;;;;;4.00;4.00;;;;;;;;5021373;28;45427;-83
2021/07/08 10:49:20;;;;;;;;;4.50;4.00;;;;;;;;5006679;28;45645;-84
2021/07/08 10:51:46;;;;;;;;;4.00;3.50;;;;;;;;5018382;28;45951;-84
2021/07/08 10:54:27;;;;;;;;;2.25;2.25;;;;;;;;5015277;28;46864;-84
2021/07/08 10:56:57;;;;;;;;;3.00;3.00;;;;;;;;5008810;28;45518;-84
2021/07/08 10:59:23;;;;;;;;;5.75;4.25;;;;;;;;5013671;28;48578;-84
2021/07/08 11:01:51;;;;;;;;;4.75;2.75;;;;;;;;5015710;28;45514;-84
2021/07/08 11:04:46;;;;;;;;;4.50;4.50;;;;;;;;5020797;28;45744;-82
2021/07/08 11:07:16;;;;;;;;;5.00;3.25;;;;;;;;5053890;22;45877;-95
2021/07/08 11:09:58;;;;;;;;;4.25;4.25;;;;;;;;4986792;28;47373;-96
2021/07/08 11:12:28;;;;;;;;;4.50;3.00;;;;;;;;5006988;28;44941;-96
2021/07/08 11:14:56;;;;;;;;;6.25;4.00;;;;;;;;4992495;28;44907;-95
2021/07/08 11:17:22;;;;;;;;;4.25;4.25;;;;;;;;4993052;28;45252;-96
2021/07/08 11:19:48;;;;;;;;;7.50;5.00;;;;;;;;4990694;28;47855;-95
2021/07/08 11:22:25;;;;;;;;;5.00;5.00;;;;;;;;5001108;28;45539;-94
2021/07/08 11:35:06;;;;;;;;;4.00;4.00;;;;;;;;5015373;28;46299;-89
2021/07/08 11:37:44;;;;;;;;;4.00;4.00;;;;;;;;5015862;28;45553;-87
2021/07/08 11:40:11;;;;;;;;;5.00;4.00;;;;;;;;5006756;28;48855;-84
2021/07/08 11:42:37;;;;;;;;;3.75;3.75;;;;;;;;5017515;28;45929;-85
2021/07/08 11:45:07;;;;;;;;;4.25;4.00;;;;;;;;5014404;28;45249;-85
2021/07/08 11:47:45;;;;;;;;;5.00;4.00;;;;;;;;5004136;28;45757;-85
2021/07/08 11:50:24;;;;;;;;;6.25;5.00;;;;;;;;5027336;28;46962;-86
2021/07/08 11:53:08;;;;;;;;;6.00;4.50;;;;;;;;5005721;28;46569;-84
2021/07/08 11:55:34;;;;;;;;;6.25;4.75;;;;;;;;5010187;28;45441;-86
2021/07/08 11:58:02;;;;;;;;;5.00;5.00;;;;;;;;5007389;28;45752;-84
2021/07/08 12:00:27;;;;;;;;;5.00;5.00;;;;;;;;5010018;28;47818;-85
2021/07/08 12:02:53;;;;;;;;;6.25;5.50;;;;;;;;5000462;28;45489;-87
2021/07/08 12:05:18;;;;;;;;;6.50;4.25;;;;;;;;5020439;28;45481;-86
2021/07/08 12:07:48;;;;;;;;;7.50;5.25;;;;;;;;5004288;28;45752;-86
2021/07/08 12:10:23;;;;;;;;;6.25;4.75;;;;;;;;5013077;28;46255;-86
2021/07/08 12:12:48;;;;;;;;;5.75;5.75;;;;;;;;5014086;28;45533;-85
2021/07/08 12:15:14;;;;;;;;;4.25;4.25;;;;;;;;5017505;28;45670;-85
2021/07/08 12:17:39;;;;;;;;;5.50;4.00;;;;;;;;5024597;28;45355;-85
2021/07/08 12:20:08;;;;;;;;;6.00;4.00;;;;;;;;5020650;28;46229;-84
2021/07/08 12:22:34;;;;;;;;;3.00;1.75;;;;;;;;4998682;28;45868;-84
2021/07/08 12:25:00;;;;;;;;;4.00;4.00;;;;;;;;5011713;28;46134;-85
2021/07/08 12:27:26;;;;;;;;;5.00;4.00;;;;;;;;5021932;28;45964;-85
2021/07/08 12:29:52;;;;;;;;;4.25;3.25;;;;;;;;5023019;28;45690;-85
2021/07/08 12:32:22;;;;;;;;;6.00;3.00;;;;;;;;5016261;28;45654;-85
2021/07/08 12:34:53;;;;;;;;;2.50;2.50;;;;;;;;5014730;28;47628;-84
2021/07/08 12:37:19;;;;;;;;;2.00;2.00;;;;;;;;5011288;28;45553;-85
2021/07/08 12:39:46;;;;;;;;;5.00;3.00;;;;;;;;5020270;28;46615;-84
2021/07/08 12:42:15;;;;;;;;;5.00;3.25;;;;;;;;4992307;28;45910;-84
2021/07/08 12:44:40;;;;;;;;;3.25;3.25;;;;;;;;5007828;28;45569;-84
2021/07/08 12:47:06;;;;;;;;;3.00;3.00;;;;;;;;5025401;28;45685;-83
2021/07/08 12:49:31;;;;;;;;;3.00;3.00;;;;;;;;5021128;28;45945;-86
2021/07/08 12:51:57;;;;;;;;;2.00;2.00;;;;;;;;5022199;28;45515;-82
2021/07/08 12:54:24;;;;;;;;;3.75;3.75;;;;;;;;4990451;28;45782;-83
2021/07/08 12:57:08;;;;;;;;;3.50;3.50;;;;;;;;5021470;28;45530;-83
2021/07/08 12:59:34;;;;;;;;;3.25;2.25;;;;;;;;5009713;28;48382;-83
2021/07/08 13:01:59;;;;;;;;;6.00;3.75;;;;;;;;5013936;28;45823;-84
2021/07/08 13:04:29;;;;;;;;;5.75;4.00;;;;;;;;4992141;28;45574;-83
2021/07/08 13:06:58;;;;;;;;;4.00;4.00;;;;;;;;5014564;28;45630;-86
2021/07/08 13:09:23;;;;;;;;;4.00;3.50;;;;;;;;5014587;28;45593;-85
2021/07/08 13:11:49;;;;;;;;;4.75;3.75;;;;;;;;5010581;28;45598;-83
2021/07/08 13:14:18;;;;;;;;;5.00;2.25;;;;;;;;5006783;28;45605;-83
2021/07/08 13:16:59;;;;;;;;;2.75;2.75;;;;;;;;5009605;28;46442;-82
2021/07/08 13:19:24;;;;;;;;;4.75;3.75;;;;;;;;5012767;28;46586;-82
2021/07/08 13:21:49;;;;;;;;;6.50;4.00;;;;;;;;5040660;28;45542;-83
2021/07/08 13:24:22;;;;;;;;;3.67;3.00;;;;;;;;5010893;28;45877;-82
2021/07/08 13:26:47;;;;;;;;;3.00;3.00;;;;;;;;5006005;28;45744;-83
2021/07/08 13:29:13;;;;;;;;;5.00;5.00;;;;;;;;5024734;28;46629;-85
2021/07/08 13:31:39;;;;;;;;;6.00;4.00;;;;;;;;5004269;28;45747;-83
2021/07/08 13:34:04;;;;;;;;;5.00;4.25;;;;;;;;5017791;28;45805;-84
2021/07/08 13:36:41;;;;;;;;;3.00;3.00;;;;;;;;5021525;28;46055;-85
2021/07/08 13:39:10;;;;;;;;;3.00;3.00;;;;;;;;5016660;28;45883;-84
2021/07/08 13:41:59;;;;;;;;;6.25;4.25;;;;;;;;5018374;28;47327;-88
2021/07/08 13:44:26;;;;;;;;;5.75;3.75;;;;;;;;5037419;22;45616;-96
2021/07/08 13:49:52;;;;;;;;;4.00;4.00;;;;;;;;5442828;22;46102;-83
2021/07/08 13:52:19;;;;;;;;;4.75;4.25;;;;;;;;4994591;28;45659;-83
2021/07/08 13:54:45;;;;;;;;;3.75;3.75;;;;;;;;4998225;28;45623;-84
2021/07/08 13:57:11;;;;;;;;;5.25;4.00;;;;;;;;4990266;28;45604;-83
2021/07/08 13:59:37;;;;;;;;;4.75;3.00;;;;;;;;4981319;28;45552;-85
2021/07/08 14:02:03;;;;;;;;;6.50;4.00;;;;;;;;4989718;28;46457;-84
2021/07/08 14:04:28;;;;;;;;;3.75;3.75;;;;;;;;4977731;28;45586;-84
2021/07/08 14:06:54;;;;;;;;;4.50;3.25;;;;;;;;4988986;28;45499;-83
2021/07/08 14:09:22;;;;;;;;;3.00;3.00;;;;;;;;4987007;28;47479;-83
2021/07/08 14:11:47;;;;;;;;;7.00;4.50;;;;;;;;5000105;28;45459;-83
2021/07/08 14:14:13;;;;;;;;;4.00;4.00;;;;;;;;4987876;28;46552;-83
2021/07/08 14:16:38;;;;;;;;;5.25;5.25;;;;;;;;4978155;28;46103;-83
2021/07/08 14:19:03;;;;;;;;;8.50;6.25;;;;;;;;4995381;28;45615;-82
2021/07/08 14:21:29;;;;;;;;;3.25;3.00;;;;;;;;4996727;28;45660;-85
2021/07/08 14:23:55;;;;;;;;;5.25;4.00;;;;;;;;4998944;28;45492;-83
2021/07/08 14:26:21;;;;;;;;;2.25;2.25;;;;;;;;4994965;28;45498;-84
2021/07/08 14:28:46;;;;;;;;;6.00;4.50;;;;;;;;4971540;28;47930;-82
2021/07/08 14:31:12;;;;;;;;;3.50;3.50;;;;;;;;5000932;28;45558;-82
2021/07/08 14:33:38;;;;;;;;;4.00;4.00;;;;;;;;4985129;28;45557;-84
2021/07/08 14:36:04;;;;;;;;;3.75;3.00;;;;;;;;4995662;28;47024;-84
2021/07/08 14:38:30;;;;;;;;;5.50;4.25;;;;;;;;5000315;28;52542;-83
2021/07/08 14:40:56;;;;;;;;;5.00;4.25;;;;;;;;4994610;28;44949;-84
2021/07/08 14:43:33;;;;;;;;;4.00;3.75;;;;;;;;4999786;28;45543;-82
2021/07/08 14:46:02;;;;;;;;;5.25;4.00;;;;;;;;4996693;28;45618;-84
2021/07/08 14:48:28;;;;;;;;;4.00;4.00;;;;;;;;4994167;28;47257;-83
2021/07/08 14:50:53;;;;;;;;;3.75;3.75;;;;;;;;5004667;28;45511;-85
2021/07/08 14:53:18;;;;;;;;;4.25;4.25;;;;;;;;5013093;28;45649;-82
2021/07/08 14:55:44;;;;;;;;;4.33;4.33;;;;;;;;5019773;28;45692;-85